Terminal Aerodrome Forecast
Issued by NWS

Home | Current Version | Previous Version | Graphics & Text | Print | Product List | Glossary On
Versions: 1 2 3 4 5 6 7 8 9 10 11 12 13 14 15 16
000
FTUS43 KTOP 031112 AAC
TAFFOE
TAF AMD
KFOE 031112Z 0311/0406 09004KT 4SM -SHRA BR BKN005 OVC011
      TEMPO 0312/0313 2SM -SHRA BR OVC004
     FM031500 01005KT P6SM BKN015
     FM031900 03006KT P6SM BKN050=

USA.gov is the U.S. government's official web portal to all federal, state and local government web resources and services.